Terminal Aerodrome Forecast
Issued by NWS Wilmington, OH

Current Version | Previous Version | Graphics & Text | Print | Product List | Glossary On
Versions: 1 2 3 4 5 6 7 8 9 10 11 12 13 14 15 16 17 18 19 20 21 22 23 24
000
FTUS41 KILN 082334
TAFCVG
TAF
KCVG 082334Z 0900/1006 29011G19KT P6SM BKN035
     FM090200 29010G18KT P6SM OVC028
     FM090400 29009KT P6SM OVC025
      TEMPO 0914/0917 OVC018
     FM100100 27005KT P6SM SCT025=

USA.gov is the U.S. government's official web portal to all federal, state and local government web resources and services.